Echo Bay, Nevada
Current Conditions -  °F | °C
As of 8:58 AM on Thursday 30 Oct 2014 (Local Time) from KLSV Reporting Station
Clear Clear  
Wind Chill: 57°   Ceiling: Unl
Heat Index: 57°   Visibility: 10mi
Dew Point: 22°   Wind: 0mph
Humidity: 26%   Direction: NA
Pressure: 30.11"   Gusts: NA
Location:  36.5809°N, 114.605°W
Report Text: KLSV 301558Z AUTO 00000KT 10SM CLR 14/M06 A3011 RMK AO2 SLP186 T01391057 $
Loading
Personal Weather Stations






























Interactive Weather Map
Tropical Storm Tracking
New forecast layout! Learn more

10-Day Weather Forecast

Advertisements
Track Severe Weather on mobile